createdAt,value
2022-09-11T00:01:12.432Z,101036.06
2022-09-11T00:03:39.498Z,101045.13
2022-09-11T00:06:08.348Z,101032.84
2022-09-11T00:08:35.101Z,101039.22
2022-09-11T00:11:05.985Z,101037.88
2022-09-11T00:13:32.828Z,101046.88
2022-09-11T00:15:59.650Z,101035.72
2022-09-11T00:18:26.573Z,101043.63
2022-09-11T00:20:55.461Z,101037.78
2022-09-11T00:23:24.407Z,101034.91
2022-09-11T00:25:51.361Z,101040.44
2022-09-11T00:28:20.672Z,101045.09
2022-09-11T00:30:56.932Z,101040.22
2022-09-11T00:33:23.445Z,101045.16
2022-09-11T00:36:03.832Z,101049.28
2022-09-11T00:38:33.262Z,101052.00
2022-09-11T00:41:02.573Z,101052.34
2022-09-11T00:43:31.013Z,101064.66
2022-09-11T00:46:02.777Z,101063.00
2022-09-11T00:48:34.410Z,101049.06
2022-09-11T00:51:03.930Z,101058.88
2022-09-11T00:53:34.327Z,101067.66
2022-09-11T00:56:05.198Z,101059.69
2022-09-11T00:58:38.246Z,101068.69
2022-09-11T01:01:05.015Z,101076.09
2022-09-11T01:03:32.143Z,101071.94
2022-09-11T01:05:59.570Z,101069.16
2022-09-11T01:08:26.229Z,101074.22
2022-09-11T01:11:13.356Z,101072.25
2022-09-11T01:14:08.403Z,101070.78
2022-09-11T01:16:43.447Z,101070.13
2022-09-11T01:19:40.294Z,101077.00
2022-09-11T01:22:20.783Z,101082.13
2022-09-11T01:25:02.126Z,101083.28
2022-09-11T01:27:39.754Z,101082.72
2022-09-11T01:30:11.732Z,101085.72
2022-09-11T01:33:00.831Z,101088.19
2022-09-11T01:36:07.204Z,101095.66
2022-09-11T01:38:57.946Z,101094.16
2022-09-11T01:41:48.506Z,101096.38
2022-09-11T01:44:22.921Z,101094.47
2022-09-11T01:46:53.047Z,101100.47
2022-09-11T01:49:41.452Z,101095.72
2022-09-11T01:52:12.940Z,101098.47
2022-09-11T01:54:49.748Z,101094.78
2022-09-11T01:57:25.403Z,101104.06
2022-09-11T01:59:59.296Z,101109.59
2022-09-11T02:02:31.057Z,101100.00
2022-09-11T02:05:06.275Z,101103.09
2022-09-11T02:07:41.593Z,101108.56
2022-09-11T02:10:11.921Z,101109.59
2022-09-11T02:12:43.866Z,101105.78
2022-09-11T02:15:13.759Z,101102.97
2022-09-11T02:17:57.607Z,101108.09
2022-09-11T02:20:28.714Z,101101.56
2022-09-11T02:22:56.668Z,101103.78
2022-09-11T02:25:23.781Z,101100.47
2022-09-11T02:27:55.049Z,101115.78
2022-09-11T02:30:21.597Z,101116.53
2022-09-11T02:32:48.525Z,101123.41
2022-09-11T02:35:16.362Z,101132.41
2022-09-11T02:37:57.378Z,101129.09
2022-09-11T02:40:39.363Z,101135.63
2022-09-11T02:43:06.407Z,101136.19
2022-09-11T02:46:12.330Z,101131.63
2022-09-11T02:48:57.103Z,101142.50
2022-09-11T02:52:02.572Z,101142.28
2022-09-11T02:55:08.123Z,101141.19
2022-09-11T02:57:45.458Z,101142.59
2022-09-11T03:00:13.408Z,101136.25
2022-09-11T03:02:42.963Z,101145.56
2022-09-11T03:05:11.137Z,101154.31
2022-09-11T03:07:40.235Z,101144.75
2022-09-11T03:10:08.386Z,101150.28
2022-09-11T03:12:36.575Z,101146.22
2022-09-11T03:15:03.870Z,101147.00
2022-09-11T03:17:30.541Z,101152.13
2022-09-11T03:19:57.235Z,101143.72
2022-09-11T03:22:24.014Z,101148.59
2022-09-11T03:24:51.865Z,101146.44
2022-09-11T03:27:21.562Z,101154.34
2022-09-11T03:29:48.324Z,101158.06
2022-09-11T03:32:16.058Z,101158.66
2022-09-11T03:34:42.528Z,101160.56
2022-09-11T03:37:08.977Z,101162.00
2022-09-11T03:39:35.619Z,101167.50
2022-09-11T03:42:02.283Z,101167.25
2022-09-11T03:44:28.979Z,101172.72
2022-09-11T03:46:56.398Z,101167.25
2022-09-11T03:49:22.929Z,101165.41
2022-09-11T03:51:49.350Z,101168.44
2022-09-11T03:54:17.683Z,101167.00
2022-09-11T03:56:45.431Z,101175.56
2022-09-11T03:59:12.615Z,101182.66
2022-09-11T04:01:39.241Z,101177.91
2022-09-11T04:04:06.425Z,101173.59
2022-09-11T04:06:37.917Z,101173.94
2022-09-11T04:09:05.259Z,101170.44
2022-09-11T04:11:36.783Z,101181.88
2022-09-11T04:14:07.550Z,101175.31
2022-09-11T04:16:36.597Z,101174.81
2022-09-11T04:19:04.060Z,101183.56
2022-09-11T04:21:34.295Z,101183.84
2022-09-11T04:24:02.826Z,101184.94
2022-09-11T04:26:32.341Z,101195.31
2022-09-11T04:29:06.552Z,101192.69
2022-09-11T04:31:36.098Z,101196.78
2022-09-11T04:34:04.074Z,101200.81
2022-09-11T04:36:35.009Z,101195.06
2022-09-11T04:39:01.722Z,101204.41
2022-09-11T04:41:29.618Z,101214.50
2022-09-11T04:44:04.860Z,101206.81
2022-09-11T04:46:34.365Z,101208.22
2022-09-11T04:49:03.096Z,101215.84
2022-09-11T04:51:33.460Z,101206.88
2022-09-11T04:54:04.187Z,101209.34
2022-09-11T04:56:39.566Z,101221.38
2022-09-11T04:59:15.881Z,101216.72
2022-09-11T05:01:46.870Z,101221.13
2022-09-11T05:04:16.948Z,101220.28
2022-09-11T05:06:48.201Z,101220.81
2022-09-11T05:09:18.223Z,101230.09
2022-09-11T05:11:47.160Z,101226.19
2022-09-11T05:14:15.217Z,101235.56
2022-09-11T05:16:44.293Z,101238.06
2022-09-11T05:19:11.897Z,101230.41
2022-09-11T05:21:39.431Z,101232.59
2022-09-11T05:24:05.874Z,101236.13
2022-09-11T05:26:36.362Z,101230.66
2022-09-11T05:29:10.160Z,101238.84
2022-09-11T05:31:42.998Z,101247.88
2022-09-11T05:34:11.034Z,101250.53
2022-09-11T05:36:37.971Z,101251.91
2022-09-11T05:39:05.068Z,101253.00
2022-09-11T05:41:33.682Z,101258.44
2022-09-11T05:44:00.543Z,101257.00
2022-09-11T05:46:27.042Z,101254.59
2022-09-11T05:48:59.023Z,101253.50
2022-09-11T05:51:26.885Z,101267.13
2022-09-11T05:53:55.039Z,101273.91
2022-09-11T05:56:24.057Z,101269.84
2022-09-11T05:58:53.379Z,101279.66
2022-09-11T06:01:26.814Z,101279.38
2022-09-11T06:04:03.025Z,101287.25
2022-09-11T06:06:31.335Z,101288.88
2022-09-11T06:08:57.878Z,101294.31
2022-09-11T06:11:26.033Z,101293.44
2022-09-11T06:13:52.651Z,101298.88
2022-09-11T06:16:21.727Z,101306.00
2022-09-11T06:18:50.203Z,101301.84
2022-09-11T06:21:21.331Z,101305.09
2022-09-11T06:23:54.881Z,101314.09
2022-09-11T06:26:25.552Z,101316.28
2022-09-11T06:28:53.659Z,101325.84
2022-09-11T06:31:24.250Z,101332.09
2022-09-11T06:33:52.749Z,101328.31
2022-09-11T06:36:23.036Z,101327.72
2022-09-11T06:38:55.616Z,101330.69
2022-09-11T06:41:24.938Z,101334.25
2022-09-11T06:43:55.325Z,101334.75
2022-09-11T06:46:24.108Z,101337.50
2022-09-11T06:48:55.733Z,101345.16
2022-09-11T06:51:25.590Z,101342.69
2022-09-11T06:53:57.754Z,101348.16
2022-09-11T06:56:27.033Z,101346.25
2022-09-11T06:58:54.040Z,101346.53
2022-09-11T07:01:24.894Z,101348.97
2022-09-11T07:03:59.220Z,101346.25
2022-09-11T07:06:28.726Z,101345.06
2022-09-11T07:09:01.095Z,101350.53
2022-09-11T07:11:38.507Z,101348.13
2022-09-11T07:14:06.466Z,101341.81
2022-09-11T07:16:37.711Z,101337.19
2022-09-11T07:19:09.873Z,101351.03
2022-09-11T07:21:38.426Z,101350.22
2022-09-11T07:24:06.014Z,101353.97
2022-09-11T07:26:39.263Z,101351.91
2022-09-11T07:29:14.504Z,101353.03
2022-09-11T07:31:42.708Z,101348.84
2022-09-11T07:34:11.002Z,101344.94
2022-09-11T07:36:37.691Z,101348.97
2022-09-11T07:39:07.729Z,101355.06
2022-09-11T07:41:38.302Z,101355.00
2022-09-11T07:44:12.897Z,101358.75
2022-09-11T07:46:41.412Z,101364.22
2022-09-11T07:49:10.151Z,101366.09
2022-09-11T07:51:39.206Z,101370.72
2022-09-11T07:54:08.045Z,101364.44
2022-09-11T07:56:36.314Z,101359.66
2022-09-11T07:59:08.942Z,101367.97
2022-09-11T08:01:38.459Z,101368.34
2022-09-11T08:04:10.163Z,101364.13
2022-09-11T08:06:38.163Z,101369.91
2022-09-11T08:09:15.188Z,101374.22
2022-09-11T08:11:48.652Z,101377.84
2022-09-11T08:14:17.635Z,101374.25
2022-09-11T08:16:46.432Z,101375.50
2022-09-11T08:19:21.886Z,101379.94
2022-09-11T08:21:53.452Z,101378.75
2022-09-11T08:24:21.337Z,101393.41
2022-09-11T08:26:50.572Z,101387.63
2022-09-11T08:29:18.459Z,101399.50
2022-09-11T08:31:45.418Z,101394.50
2022-09-11T08:34:12.599Z,101403.78
2022-09-11T08:36:39.629Z,101401.06
2022-09-11T08:39:08.946Z,101404.69
2022-09-11T08:41:50.097Z,101402.00
2022-09-11T08:44:23.104Z,101410.31
2022-09-11T08:47:08.474Z,101411.88
2022-09-11T08:49:42.933Z,101416.31
2022-09-11T08:52:13.914Z,101413.72
2022-09-11T08:54:42.311Z,101418.59
2022-09-11T08:57:37.752Z,101420.69
2022-09-11T09:00:21.230Z,101417.66
2022-09-11T09:03:21.005Z,101424.69
2022-09-11T09:06:13.893Z,101422.97
2022-09-11T09:08:55.946Z,101428.78
2022-09-11T09:11:57.130Z,101428.75
2022-09-11T09:14:39.870Z,101423.84
2022-09-11T09:17:19.935Z,101424.84
2022-09-11T09:19:57.539Z,101430.03
2022-09-11T09:22:30.135Z,101430.50
2022-09-11T09:25:09.923Z,101428.88
2022-09-11T09:27:48.689Z,101435.09
2022-09-11T09:30:27.210Z,101433.91
2022-09-11T09:33:09.220Z,101437.91
2022-09-11T09:35:43.691Z,101441.22
2022-09-11T09:38:13.999Z,101437.81
2022-09-11T09:40:54.030Z,101442.28
2022-09-11T09:43:35.758Z,101443.38
2022-09-11T09:46:26.117Z,101445.69
2022-09-11T09:48:53.114Z,101450.88
2022-09-11T09:51:19.481Z,101450.81
2022-09-11T09:53:54.941Z,101448.00
2022-09-11T09:56:23.700Z,101448.13
2022-09-11T09:59:13.999Z,101450.72
2022-09-11T10:01:51.157Z,101450.41
2022-09-11T10:04:21.661Z,101452.06
2022-09-11T10:06:52.290Z,101449.31
2022-09-11T10:09:25.209Z,101449.47
2022-09-11T10:12:01.832Z,101456.75
2022-09-11T10:14:55.864Z,101448.53
2022-09-11T10:17:29.485Z,101451.59
2022-09-11T10:20:12.118Z,101449.75
2022-09-11T10:22:38.810Z,101450.09
2022-09-11T10:25:16.967Z,101453.03
2022-09-11T10:27:46.254Z,101447.53
2022-09-11T10:30:31.535Z,101451.13
2022-09-11T10:33:03.586Z,101455.59
2022-09-11T10:35:33.250Z,101450.31
2022-09-11T10:38:02.357Z,101455.19
2022-09-11T10:40:28.893Z,101453.78
2022-09-11T10:42:55.385Z,101461.31
2022-09-11T10:45:22.713Z,101452.53
2022-09-11T10:47:49.298Z,101461.63
2022-09-11T10:50:23.263Z,101463.22
2022-09-11T10:52:58.708Z,101458.72
2022-09-11T10:55:41.509Z,101451.78
2022-09-11T10:58:17.326Z,101450.53
2022-09-11T11:00:44.932Z,101456.94
2022-09-11T11:03:17.219Z,101460.13
2022-09-11T11:06:14.150Z,101459.69
2022-09-11T11:09:02.886Z,101457.38
2022-09-11T11:12:05.462Z,101450.53
2022-09-11T11:15:06.394Z,101454.31
2022-09-11T11:18:06.527Z,101458.03
2022-09-11T11:20:52.362Z,101460.66
2022-09-11T11:23:36.119Z,101458.53
2022-09-11T11:26:21.212Z,101460.19
2022-09-11T11:29:33.935Z,101463.19
2022-09-11T11:32:27.854Z,101481.59
2022-09-11T11:35:12.768Z,101474.59
2022-09-11T11:37:46.250Z,101474.84
2022-09-11T11:40:21.414Z,101472.16
2022-09-11T11:43:11.415Z,101472.72
2022-09-11T11:45:47.375Z,101474.50
2022-09-11T11:48:20.573Z,101468.56
2022-09-11T11:50:53.350Z,101474.41
2022-09-11T11:53:24.621Z,101475.00
2022-09-11T11:56:09.871Z,101469.28
2022-09-11T11:59:07.147Z,101470.59
2022-09-11T12:01:56.043Z,101471.13
2022-09-11T12:04:48.739Z,101463.34
2022-09-11T12:07:37.230Z,101471.97
2022-09-11T12:10:07.002Z,101478.38
2022-09-11T12:12:47.769Z,101467.88
2022-09-11T12:15:25.650Z,101464.84
2022-09-11T12:18:03.281Z,101475.81
2022-09-11T12:20:45.014Z,101468.66
2022-09-11T12:23:29.886Z,101467.88
2022-09-11T12:26:09.246Z,101474.47
2022-09-11T12:28:39.096Z,101460.84
2022-09-11T12:31:14.039Z,101468.88
2022-09-11T12:33:44.132Z,101471.97
2022-09-11T12:36:31.695Z,101462.88
2022-09-11T12:39:04.545Z,101460.44
2022-09-11T12:41:35.620Z,101462.34
2022-09-11T12:44:04.673Z,101464.47
2022-09-11T12:46:31.989Z,101468.03
2022-09-11T12:49:23.281Z,101463.34
2022-09-11T12:51:53.821Z,101471.59
2022-09-11T12:54:23.297Z,101470.00
2022-09-11T12:57:06.442Z,101462.53
2022-09-11T12:59:38.591Z,101458.31
2022-09-11T13:02:24.656Z,101467.25
2022-09-11T13:04:52.190Z,101460.22
2022-09-11T13:07:34.721Z,101453.75
2022-09-11T13:10:08.121Z,101456.88
2022-09-11T13:12:48.709Z,101455.03
2022-09-11T13:15:40.929Z,101450.22
2022-09-11T13:18:31.608Z,101447.88
2022-09-11T13:21:00.648Z,101442.03
2022-09-11T13:23:28.326Z,101443.66
2022-09-11T13:25:56.663Z,101445.06
2022-09-11T13:28:27.298Z,101447.22
2022-09-11T13:31:00.992Z,101442.53
2022-09-11T13:33:31.686Z,101435.72
2022-09-11T13:36:03.111Z,101440.28
2022-09-11T13:38:36.531Z,101444.81
2022-09-11T13:41:14.883Z,101430.84
2022-09-11T13:43:49.229Z,101430.38
2022-09-11T13:46:15.759Z,101431.81
2022-09-11T13:48:48.986Z,101429.53
2022-09-11T13:51:29.522Z,101430.53
2022-09-11T13:54:03.988Z,101421.38
2022-09-11T13:56:47.170Z,101417.47
2022-09-11T13:59:36.377Z,101416.22
2022-09-11T14:02:18.974Z,101419.78
2022-09-11T14:04:47.265Z,101412.66
2022-09-11T14:07:20.778Z,101413.31
2022-09-11T14:10:14.898Z,101412.03
2022-09-11T14:12:52.842Z,101406.81
2022-09-11T14:15:27.958Z,101410.53
2022-09-11T14:17:54.533Z,101414.72
2022-09-11T14:20:23.110Z,101410.78
2022-09-11T14:22:54.700Z,101417.72
2022-09-11T14:25:23.359Z,101409.28
2022-09-11T14:27:50.387Z,101405.38
2022-09-11T14:30:27.937Z,101406.03
2022-09-11T14:33:15.359Z,101403.03
2022-09-11T14:35:43.685Z,101396.56
2022-09-11T14:38:12.825Z,101393.63
2022-09-11T14:40:48.251Z,101389.63
2022-09-11T14:43:14.718Z,101392.81
2022-09-11T14:45:41.309Z,101389.53
2022-09-11T14:48:13.242Z,101388.16
2022-09-11T14:50:39.930Z,101383.63
2022-09-11T14:53:06.399Z,101384.88
2022-09-11T14:55:33.926Z,101387.97
2022-09-11T14:58:03.959Z,101388.44
2022-09-11T15:00:31.910Z,101387.97
2022-09-11T15:03:00.255Z,101386.59
2022-09-11T15:05:29.663Z,101383.81
2022-09-11T15:07:56.823Z,101392.84
2022-09-11T15:10:23.351Z,101388.59
2022-09-11T15:12:50.060Z,101381.94
2022-09-11T15:15:20.122Z,101383.09
2022-09-11T15:17:46.574Z,101385.31
2022-09-11T15:20:12.991Z,101385.63
2022-09-11T15:22:39.694Z,101380.34
2022-09-11T15:25:06.707Z,101377.25
2022-09-11T15:27:33.678Z,101379.50
2022-09-11T15:30:00.659Z,101367.56
2022-09-11T15:32:27.452Z,101366.44
2022-09-11T15:34:54.042Z,101369.53
2022-09-11T15:37:20.898Z,101371.69
2022-09-11T15:39:49.610Z,101372.81
2022-09-11T15:42:16.169Z,101354.69
2022-09-11T15:44:42.525Z,101359.88
2022-09-11T15:47:09.160Z,101362.53
2022-09-11T15:49:42.775Z,101355.38
2022-09-11T15:52:09.250Z,101360.50
2022-09-11T15:54:35.808Z,101356.75
2022-09-11T15:57:02.329Z,101356.41
2022-09-11T15:59:29.019Z,101360.63
2022-09-11T16:01:55.680Z,101356.03
2022-09-11T16:04:27.926Z,101360.84
2022-09-11T16:06:55.165Z,101362.94
2022-09-11T16:09:24.697Z,101359.19
2022-09-11T16:11:51.798Z,101356.25
2022-09-11T16:14:21.022Z,101350.25
2022-09-11T16:16:47.891Z,101359.13
2022-09-11T16:19:19.926Z,101356.19
2022-09-11T16:21:47.289Z,101359.56
2022-09-11T16:24:16.241Z,101351.13
2022-09-11T16:26:44.210Z,101360.00
2022-09-11T16:29:13.021Z,101347.69
2022-09-11T16:31:40.047Z,101345.56
2022-09-11T16:34:07.335Z,101349.72
2022-09-11T16:36:41.787Z,101343.25
2022-09-11T16:39:11.574Z,101350.47
2022-09-11T16:41:38.446Z,101352.75
2022-09-11T16:44:06.758Z,101356.09
2022-09-11T16:46:33.472Z,101346.06
2022-09-11T16:49:02.184Z,101342.78
2022-09-11T16:51:29.859Z,101334.03
2022-09-11T16:53:56.444Z,101331.41
2022-09-11T16:56:24.306Z,101340.25
2022-09-11T16:58:50.799Z,101335.88
2022-09-11T17:01:22.916Z,101331.63
2022-09-11T17:03:51.856Z,101328.38
2022-09-11T17:06:20.221Z,101328.78
2022-09-11T17:08:49.901Z,101336.50
2022-09-11T17:11:18.972Z,101326.97
2022-09-11T17:13:46.554Z,101324.22
2022-09-11T17:16:17.061Z,101329.72
2022-09-11T17:18:47.973Z,101330.81
2022-09-11T17:21:15.174Z,101324.53
2022-09-11T17:23:42.311Z,101342.78
2022-09-11T17:26:12.499Z,101332.28
2022-09-11T17:28:40.136Z,101334.44
2022-09-11T17:31:08.788Z,101339.56
2022-09-11T17:33:38.208Z,101333.13
2022-09-11T17:54:18.741Z,101337.22
2022-09-11T17:56:45.177Z,101330.72
2022-09-11T17:59:11.659Z,101340.06
2022-09-11T18:01:38.144Z,101338.75
2022-09-11T18:04:04.660Z,101339.06
2022-09-11T18:06:36.699Z,101339.06
2022-09-11T18:09:13.834Z,101338.53
2022-09-11T18:11:42.938Z,101338.09
2022-09-11T18:14:10.099Z,101340.94
2022-09-11T18:16:36.829Z,101347.56
2022-09-11T18:19:05.436Z,101342.38
2022-09-11T18:21:38.363Z,101343.34
2022-09-11T18:24:06.348Z,101343.72
2022-09-11T18:26:36.613Z,101348.53
2022-09-11T18:29:06.999Z,101338.78
2022-09-11T18:31:39.959Z,101353.09
2022-09-11T18:34:07.236Z,101350.72
2022-09-11T18:36:33.674Z,101346.63
2022-09-11T18:39:03.575Z,101344.19
2022-09-11T18:41:33.410Z,101350.50
2022-09-11T18:44:02.756Z,101353.91
2022-09-11T18:46:31.756Z,101354.03
2022-09-11T18:48:59.984Z,101354.63
2022-09-11T18:51:27.154Z,101349.22
2022-09-11T18:53:54.517Z,101355.56
2022-09-11T18:56:23.019Z,101355.56
2022-09-11T18:58:52.081Z,101361.34
2022-09-11T19:01:21.189Z,101354.00
2022-09-11T19:03:48.757Z,101353.84
2022-09-11T19:06:17.831Z,101364.00
2022-09-11T19:08:46.953Z,101366.16
2022-09-11T19:11:16.557Z,101369.41
2022-09-11T19:13:44.725Z,101374.31
2022-09-11T19:16:11.829Z,101371.94
2022-09-11T19:18:39.154Z,101375.25
2022-09-11T19:21:12.350Z,101376.34
2022-09-11T19:23:44.693Z,101383.00
2022-09-11T19:26:16.746Z,101385.22
2022-09-11T19:28:44.671Z,101385.34
2022-09-11T19:31:13.069Z,101390.34
2022-09-11T19:33:41.278Z,101388.25
2022-09-11T19:36:23.350Z,101390.47
2022-09-11T19:38:55.761Z,101396.50
2022-09-11T19:41:23.861Z,101400.69
2022-09-11T19:43:51.091Z,101392.81
2022-09-11T19:46:20.442Z,101399.94
2022-09-11T19:48:48.946Z,101399.69
2022-09-11T19:51:23.663Z,101398.34
2022-09-11T19:53:51.548Z,101406.31
2022-09-11T19:56:19.065Z,101403.06
2022-09-11T19:58:45.712Z,101396.22
2022-09-11T20:01:14.593Z,101400.66
2022-09-11T20:03:44.040Z,101397.91
2022-09-11T20:06:12.141Z,101402.56
2022-09-11T20:08:42.779Z,101399.06
2022-09-11T20:11:12.392Z,101398.47
2022-09-11T20:13:38.882Z,101399.88
2022-09-11T20:16:07.532Z,101397.69
2022-09-11T20:18:34.772Z,101404.53
2022-09-11T20:21:07.340Z,101400.44
2022-09-11T20:23:33.892Z,101396.09
2022-09-11T20:26:16.814Z,101402.38
2022-09-11T20:28:43.888Z,101404.06
2022-09-11T20:31:26.401Z,101399.97
2022-09-11T20:33:53.162Z,101399.44
2022-09-11T20:36:20.227Z,101401.38
2022-09-11T20:38:52.710Z,101395.63
2022-09-11T20:41:20.972Z,101397.59
2022-09-11T20:43:47.358Z,101398.69
2022-09-11T20:46:13.955Z,101403.09
2022-09-11T20:48:40.636Z,101395.47
2022-09-11T20:51:10.252Z,101393.00
2022-09-11T20:53:37.555Z,101388.38
2022-09-11T20:56:09.473Z,101388.06
2022-09-11T20:58:36.317Z,101384.56
2022-09-11T21:01:04.777Z,101379.38
2022-09-11T21:03:31.298Z,101384.31
2022-09-11T21:05:58.247Z,101388.44
2022-09-11T21:08:27.714Z,101386.81
2022-09-11T21:10:54.125Z,101380.22
2022-09-11T21:13:20.561Z,101387.91
2022-09-11T21:15:48.360Z,101383.84
2022-09-11T21:18:15.395Z,101388.75
2022-09-11T21:20:42.275Z,101381.41
2022-09-11T21:23:08.753Z,101385.81
2022-09-11T21:25:40.214Z,101381.19
2022-09-11T21:28:06.763Z,101380.13
2022-09-11T21:30:33.340Z,101373.84
2022-09-11T21:32:59.826Z,101367.00
2022-09-11T21:35:26.176Z,101370.56
2022-09-11T21:37:52.881Z,101373.03
2022-09-11T21:40:19.237Z,101375.53
2022-09-11T21:42:45.904Z,101368.41
2022-09-11T21:45:12.342Z,101366.00
2022-09-11T21:47:38.779Z,101370.38
2022-09-11T21:50:08.001Z,101367.09
2022-09-11T21:52:34.990Z,101369.63
2022-09-11T21:55:03.751Z,101373.47
2022-09-11T21:57:31.429Z,101370.47
2022-09-11T21:59:58.503Z,101370.72
2022-09-11T22:02:26.236Z,101367.44
2022-09-11T22:04:53.197Z,101369.66
2022-09-11T22:07:20.066Z,101370.72
2022-09-11T22:09:50.247Z,101369.38
2022-09-11T22:12:16.886Z,101366.13
2022-09-11T22:14:46.879Z,101371.84
2022-09-11T22:17:13.517Z,101367.50
2022-09-11T22:19:43.159Z,101368.06
2022-09-11T22:22:09.654Z,101359.34
2022-09-11T22:24:38.562Z,101363.16
2022-09-11T22:27:06.403Z,101363.19
2022-09-11T22:29:33.083Z,101366.72
2022-09-11T22:31:59.803Z,101366.44
2022-09-11T22:34:26.417Z,101368.09
2022-09-11T22:36:52.820Z,101374.66
2022-09-11T22:39:19.284Z,101365.09
2022-09-11T22:41:45.714Z,101363.72
2022-09-11T22:44:12.498Z,101365.91
2022-09-11T22:46:38.880Z,101364.81
2022-09-11T22:49:05.896Z,101361.03
2022-09-11T22:51:33.204Z,101365.13
2022-09-11T22:53:59.918Z,101370.31
2022-09-11T22:56:26.380Z,101367.59
2022-09-11T22:58:53.792Z,101365.38
2022-09-11T23:01:22.724Z,101365.13
2022-09-11T23:03:51.497Z,101364.84
2022-09-11T23:06:37.421Z,101368.13
2022-09-11T23:09:10.074Z,101365.94
2022-09-11T23:11:36.561Z,101365.16
2022-09-11T23:14:02.970Z,101360.50
2022-09-11T23:16:29.945Z,101355.91
2022-09-11T23:19:01.809Z,101353.72
2022-09-11T23:21:31.029Z,101364.34
2022-09-11T23:23:58.060Z,101359.94
2022-09-11T23:26:26.874Z,101361.34
2022-09-11T23:28:53.982Z,101357.25
2022-09-11T23:31:25.112Z,101355.91
2022-09-11T23:33:54.342Z,101360.81
2022-09-11T23:36:21.555Z,101373.38
2022-09-11T23:38:49.101Z,101365.72
2022-09-11T23:41:16.122Z,101363.00
2022-09-11T23:43:42.775Z,101369.81
2022-09-11T23:46:09.898Z,101373.13
2022-09-11T23:48:36.474Z,101370.13
2022-09-11T23:51:02.932Z,101367.94
2022-09-11T23:53:30.335Z,101366.03
2022-09-11T23:55:57.856Z,101358.69
2022-09-11T23:58:24.469Z,101360.06
